createdAt,value
2022-07-29T00:00:25.561Z,99.90
2022-07-29T00:02:53.700Z,99.90
2022-07-29T00:05:21.861Z,99.90
2022-07-29T00:07:49.986Z,99.90
2022-07-29T00:10:18.293Z,99.90
2022-07-29T00:12:48.108Z,99.90
2022-07-29T00:15:16.318Z,99.90
2022-07-29T00:17:44.428Z,99.90
2022-07-29T00:20:12.808Z,99.90
2022-07-29T00:22:41.365Z,99.90
2022-07-29T00:25:09.898Z,99.90
2022-07-29T00:27:38.376Z,99.90
2022-07-29T00:30:09.606Z,99.90
2022-07-29T00:32:37.660Z,99.90
2022-07-29T00:35:24.435Z,99.90
2022-07-29T00:37:52.535Z,99.90
2022-07-29T00:40:23.485Z,99.90
2022-07-29T00:42:53.541Z,99.90
2022-07-29T00:45:23.835Z,99.90
2022-07-29T00:47:51.977Z,99.90
2022-07-29T00:50:20.501Z,99.90
2022-07-29T00:52:48.670Z,99.90
2022-07-29T00:55:17.921Z,99.90
2022-07-29T00:57:47.482Z,99.90
2022-07-29T01:00:19.813Z,99.90
2022-07-29T01:02:50.138Z,99.90
2022-07-29T01:05:21.026Z,99.90
2022-07-29T01:07:51.462Z,99.90
2022-07-29T01:10:21.969Z,99.90
2022-07-29T01:12:52.062Z,99.90
2022-07-29T01:15:20.309Z,99.90
2022-07-29T01:17:54.758Z,99.90
2022-07-29T01:20:32.143Z,99.90
2022-07-29T01:23:49.903Z,99.90
2022-07-29T01:26:36.993Z,99.90
2022-07-29T01:29:10.945Z,99.90
2022-07-29T01:31:59.059Z,99.90
2022-07-29T01:34:40.161Z,99.90
2022-07-29T01:37:17.462Z,99.90
2022-07-29T01:39:47.912Z,99.90
2022-07-29T01:42:22.754Z,99.90
2022-07-29T01:44:58.330Z,99.90
2022-07-29T01:47:33.225Z,99.90
2022-07-29T01:50:08.365Z,99.90
2022-07-29T01:52:41.542Z,99.90
2022-07-29T01:55:14.790Z,99.90
2022-07-29T01:57:45.984Z,99.90
2022-07-29T02:00:17.339Z,99.90
2022-07-29T02:02:47.457Z,99.90
2022-07-29T02:05:18.059Z,99.90
2022-07-29T02:07:48.244Z,99.90
2022-07-29T02:10:18.874Z,99.90
2022-07-29T02:12:50.665Z,99.90
2022-07-29T02:15:21.519Z,99.90
2022-07-29T02:17:56.029Z,99.90
2022-07-29T02:20:24.968Z,99.90
2022-07-29T02:22:54.101Z,99.90
2022-07-29T02:25:24.463Z,99.90
2022-07-29T02:27:54.147Z,99.90
2022-07-29T02:30:24.653Z,99.90
2022-07-29T02:32:53.937Z,99.90
2022-07-29T02:35:23.900Z,99.90
2022-07-29T02:38:08.047Z,99.90
2022-07-29T02:40:38.148Z,99.90
2022-07-29T02:43:08.899Z,99.90
2022-07-29T02:45:38.768Z,99.90
2022-07-29T02:48:12.887Z,99.90
2022-07-29T02:50:47.949Z,99.90
2022-07-29T02:53:19.774Z,99.90
2022-07-29T02:55:53.453Z,99.90
2022-07-29T02:58:29.328Z,99.90
2022-07-29T03:01:00.415Z,99.90
2022-07-29T03:03:33.438Z,99.90
2022-07-29T03:06:04.917Z,99.90
2022-07-29T03:08:34.255Z,99.90
2022-07-29T03:11:03.609Z,99.90
2022-07-29T03:13:32.522Z,99.90
2022-07-29T03:16:02.552Z,99.90
2022-07-29T03:18:30.954Z,99.90
2022-07-29T03:20:59.294Z,99.90
2022-07-29T03:23:28.841Z,99.90
2022-07-29T03:26:03.451Z,99.90
2022-07-29T03:28:31.929Z,99.90
2022-07-29T03:31:02.167Z,99.90
2022-07-29T03:33:31.342Z,99.90
2022-07-29T03:35:59.666Z,99.90
2022-07-29T03:38:31.437Z,99.90
2022-07-29T03:41:05.277Z,99.90
2022-07-29T03:43:36.533Z,99.90
2022-07-29T03:46:08.493Z,99.90
2022-07-29T03:48:41.706Z,99.90
2022-07-29T03:51:09.972Z,99.90
2022-07-29T03:53:38.269Z,99.90
2022-07-29T03:56:09.010Z,99.90
2022-07-29T03:58:37.508Z,99.90
2022-07-29T04:01:08.337Z,99.90
2022-07-29T04:03:37.017Z,99.90
2022-07-29T04:06:07.724Z,99.90
2022-07-29T04:08:36.364Z,99.90
2022-07-29T04:11:05.545Z,99.90
2022-07-29T04:13:34.763Z,99.90
2022-07-29T04:16:03.101Z,99.90
2022-07-29T04:18:32.560Z,99.90
2022-07-29T04:21:01.804Z,99.90
2022-07-29T04:23:33.421Z,99.90
2022-07-29T04:26:02.043Z,99.90
2022-07-29T04:28:30.181Z,99.90
2022-07-29T04:30:58.306Z,99.90
2022-07-29T04:33:26.387Z,99.90
2022-07-29T04:35:55.797Z,99.90
2022-07-29T04:38:23.882Z,99.90
2022-07-29T04:40:51.957Z,99.90
2022-07-29T04:43:22.401Z,99.90
2022-07-29T04:45:51.529Z,99.90
2022-07-29T04:48:20.615Z,99.90
2022-07-29T04:50:51.010Z,99.90
2022-07-29T04:53:20.643Z,99.90
2022-07-29T04:55:48.755Z,99.90
2022-07-29T04:58:16.807Z,99.90
2022-07-29T05:00:44.918Z,99.90
2022-07-29T05:03:13.081Z,99.90
2022-07-29T05:05:41.736Z,99.90
2022-07-29T05:08:10.016Z,99.90
2022-07-29T05:10:39.877Z,99.90
2022-07-29T05:13:08.475Z,99.90
2022-07-29T05:15:37.292Z,99.90
2022-07-29T05:18:06.240Z,99.90
2022-07-29T05:20:35.546Z,99.90
2022-07-29T05:23:04.713Z,99.90
2022-07-29T05:25:43.671Z,99.90
2022-07-29T05:28:14.656Z,99.90
2022-07-29T05:30:42.785Z,99.90
2022-07-29T05:33:35.346Z,99.90
2022-07-29T05:36:00.832Z,99.90
2022-07-29T05:38:29.398Z,99.90
2022-07-29T05:40:59.471Z,99.90
2022-07-29T05:43:29.478Z,99.90
2022-07-29T05:45:58.052Z,99.90
2022-07-29T05:48:26.458Z,99.90
2022-07-29T05:50:54.552Z,99.90
2022-07-29T05:53:22.640Z,99.90
2022-07-29T05:55:51.039Z,99.90
2022-07-29T05:58:19.251Z,99.90
2022-07-29T06:00:48.743Z,99.90
2022-07-29T06:03:17.021Z,99.90
2022-07-29T06:05:45.403Z,98.10
2022-07-29T06:08:13.486Z,96.90
2022-07-29T06:10:41.551Z,95.40
2022-07-29T06:13:09.563Z,96.00
2022-07-29T06:15:37.688Z,94.20
2022-07-29T06:18:10.007Z,93.40
2022-07-29T06:20:39.211Z,93.60
2022-07-29T06:23:08.097Z,93.90
2022-07-29T06:25:37.588Z,92.30
2022-07-29T06:28:06.031Z,92.60
2022-07-29T06:30:34.518Z,91.70
2022-07-29T06:33:02.951Z,91.80
2022-07-29T06:35:38.296Z,91.10
2022-07-29T06:38:31.685Z,91.80
2022-07-29T06:41:04.696Z,90.90
2022-07-29T06:43:34.795Z,90.60
2022-07-29T06:46:04.403Z,90.10
2022-07-29T06:48:33.079Z,91.00
2022-07-29T06:51:03.004Z,91.40
2022-07-29T06:53:32.040Z,90.70
2022-07-29T06:56:01.184Z,90.80
2022-07-29T06:58:30.023Z,91.10
2022-07-29T07:00:58.863Z,90.30
2022-07-29T07:03:27.388Z,90.80
2022-07-29T07:05:56.632Z,90.40
2022-07-29T07:08:26.181Z,89.20
2022-07-29T07:10:54.666Z,89.20
2022-07-29T07:13:22.742Z,88.60
2022-07-29T07:15:51.743Z,86.50
2022-07-29T07:18:20.602Z,86.50
2022-07-29T07:20:48.726Z,84.60
2022-07-29T07:23:16.818Z,84.50
2022-07-29T07:25:46.339Z,83.40
2022-07-29T07:28:14.388Z,87.60
2022-07-29T07:30:42.444Z,88.20
2022-07-29T07:33:10.493Z,87.10
2022-07-29T07:35:38.539Z,81.40
2022-07-29T07:38:07.688Z,80.60
2022-07-29T07:40:35.754Z,77.80
2022-07-29T07:43:05.201Z,74.70
2022-07-29T07:45:34.599Z,74.00
2022-07-29T07:48:02.726Z,70.30
2022-07-29T07:50:30.848Z,65.50
2022-07-29T07:52:59.528Z,63.30
2022-07-29T07:55:27.965Z,61.70
2022-07-29T07:57:56.540Z,58.40
2022-07-29T08:00:25.966Z,57.90
2022-07-29T08:02:54.081Z,57.70
2022-07-29T08:05:22.182Z,58.80
2022-07-29T08:07:50.385Z,58.30
2022-07-29T08:10:39.831Z,57.10
2022-07-29T08:13:09.439Z,60.00
2022-07-29T08:15:40.552Z,57.40
2022-07-29T08:18:09.066Z,59.40
2022-07-29T08:20:37.429Z,58.80
2022-07-29T08:23:07.021Z,55.60
2022-07-29T08:25:38.477Z,54.80
2022-07-29T08:28:08.249Z,53.80
2022-07-29T08:30:38.105Z,53.50
2022-07-29T08:33:06.238Z,50.70
2022-07-29T08:35:35.642Z,49.00
2022-07-29T08:38:05.308Z,51.40
2022-07-29T08:40:33.473Z,53.00
2022-07-29T08:43:06.833Z,54.50
2022-07-29T08:45:48.184Z,54.00
2022-07-29T08:48:18.379Z,53.90
2022-07-29T08:50:47.571Z,54.80
2022-07-29T08:53:17.458Z,51.00
2022-07-29T08:55:47.111Z,52.20
2022-07-29T08:58:16.014Z,51.40
2022-07-29T09:00:48.535Z,52.40
2022-07-29T09:03:20.431Z,51.80
2022-07-29T09:05:48.971Z,53.20
2022-07-29T09:08:18.169Z,52.90
2022-07-29T09:10:46.874Z,52.40
2022-07-29T09:13:15.040Z,52.70
2022-07-29T09:15:43.253Z,52.10
2022-07-29T09:18:20.658Z,52.70
2022-07-29T09:21:16.517Z,52.40
2022-07-29T09:24:02.056Z,51.20
2022-07-29T09:26:30.842Z,49.90
2022-07-29T09:28:59.542Z,51.80
2022-07-29T09:31:38.801Z,51.50
2022-07-29T09:34:09.191Z,48.70
2022-07-29T09:36:44.668Z,49.30
2022-07-29T09:39:13.708Z,49.40
2022-07-29T09:41:50.002Z,49.80
2022-07-29T09:44:19.245Z,49.70
2022-07-29T09:47:07.704Z,51.00
2022-07-29T09:49:38.261Z,51.70
2022-07-29T09:52:08.837Z,51.90
2022-07-29T09:54:41.255Z,50.30
2022-07-29T09:57:13.461Z,49.60
2022-07-29T09:59:57.314Z,49.10
2022-07-29T10:02:30.389Z,51.60
2022-07-29T10:05:00.033Z,48.20
2022-07-29T10:07:28.613Z,50.00
2022-07-29T10:09:57.961Z,50.10
2022-07-29T10:12:26.494Z,51.20
2022-07-29T10:14:55.147Z,49.70
2022-07-29T10:17:24.021Z,49.30
2022-07-29T10:19:52.132Z,47.40
2022-07-29T10:22:50.431Z,50.70
2022-07-29T10:25:10.868Z,49.90
2022-07-29T10:27:40.011Z,49.80
2022-07-29T10:30:09.115Z,47.50
2022-07-29T10:32:53.980Z,49.30
2022-07-29T10:35:35.408Z,47.40
2022-07-29T10:38:39.057Z,47.10
2022-07-29T10:41:32.311Z,50.40
2022-07-29T10:44:19.255Z,51.60
2022-07-29T10:46:48.394Z,51.00
2022-07-29T10:49:18.914Z,49.40
2022-07-29T10:51:58.062Z,50.00
2022-07-29T10:54:45.942Z,48.60
2022-07-29T10:57:20.253Z,49.30
2022-07-29T10:59:50.387Z,48.90
2022-07-29T11:02:44.737Z,50.10
2022-07-29T11:05:15.424Z,48.50
2022-07-29T11:08:31.791Z,49.50
2022-07-29T11:11:43.918Z,48.90
2022-07-29T11:14:26.465Z,47.90
2022-07-29T11:17:07.294Z,47.90
2022-07-29T11:19:37.170Z,52.30
2022-07-29T11:22:11.535Z,50.10
2022-07-29T11:24:50.341Z,49.90
2022-07-29T11:27:21.030Z,48.00
2022-07-29T11:29:56.834Z,48.10
2022-07-29T11:32:29.236Z,48.50
2022-07-29T11:35:19.165Z,47.20
2022-07-29T11:37:52.509Z,48.60
2022-07-29T11:40:24.100Z,48.00
2022-07-29T11:42:52.818Z,48.70
2022-07-29T11:45:42.535Z,47.00
2022-07-29T11:48:28.406Z,48.10
2022-07-29T11:50:59.073Z,49.90
2022-07-29T11:53:29.234Z,48.50
2022-07-29T11:56:02.701Z,46.10
2022-07-29T11:58:32.090Z,46.80
2022-07-29T12:01:04.748Z,47.50
2022-07-29T12:03:36.679Z,47.40
2022-07-29T12:06:15.512Z,49.60
2022-07-29T12:08:45.727Z,51.20
2022-07-29T12:11:22.397Z,50.80
2022-07-29T12:13:51.784Z,50.70
2022-07-29T12:16:29.309Z,50.60
2022-07-29T12:19:02.905Z,49.90
2022-07-29T12:21:31.861Z,52.50
2022-07-29T12:24:08.808Z,50.90
2022-07-29T12:26:37.909Z,49.70
2022-07-29T12:29:14.044Z,50.20
2022-07-29T12:31:58.111Z,50.50
2022-07-29T12:34:28.732Z,50.30
2022-07-29T12:36:57.497Z,49.00
2022-07-29T12:39:28.695Z,50.20
2022-07-29T12:42:03.884Z,52.90
2022-07-29T12:44:47.292Z,50.80
2022-07-29T12:47:17.016Z,49.90
2022-07-29T12:49:45.064Z,51.90
2022-07-29T12:52:26.381Z,50.80
2022-07-29T12:54:54.533Z,51.30
2022-07-29T12:57:23.063Z,54.60
2022-07-29T13:00:06.191Z,52.80
2022-07-29T13:02:37.610Z,54.80
2022-07-29T13:05:09.097Z,54.40
2022-07-29T13:07:55.576Z,53.90
2022-07-29T13:10:26.019Z,52.00
2022-07-29T13:13:05.109Z,53.70
2022-07-29T13:15:34.020Z,53.50
2022-07-29T13:18:03.663Z,54.10
2022-07-29T13:20:32.096Z,52.40
2022-07-29T13:23:00.785Z,51.90
2022-07-29T13:25:31.066Z,51.10
2022-07-29T13:27:59.580Z,52.00
2022-07-29T13:30:28.345Z,51.80
2022-07-29T13:32:57.351Z,54.70
2022-07-29T13:35:26.855Z,51.30
2022-07-29T13:37:54.929Z,50.20
2022-07-29T13:40:23.201Z,52.30
2022-07-29T13:42:51.370Z,49.10
2022-07-29T13:45:19.958Z,49.00
2022-07-29T13:47:49.502Z,49.50
2022-07-29T13:50:17.674Z,49.70
2022-07-29T13:52:49.040Z,49.00
2022-07-29T13:55:17.112Z,50.50
2022-07-29T13:57:45.146Z,49.10
2022-07-29T14:00:14.375Z,49.50
2022-07-29T14:02:42.768Z,49.70
2022-07-29T14:05:11.670Z,49.30
2022-07-29T14:07:40.639Z,49.70
2022-07-29T14:10:11.052Z,50.60
2022-07-29T14:12:39.811Z,50.10
2022-07-29T14:15:08.597Z,50.10
2022-07-29T14:17:36.715Z,50.40
2022-07-29T14:20:05.657Z,49.40
2022-07-29T14:22:36.067Z,49.90
2022-07-29T14:25:14.548Z,52.20
2022-07-29T14:27:45.273Z,52.40
2022-07-29T14:30:14.169Z,51.40
2022-07-29T14:32:42.429Z,50.50
2022-07-29T14:35:10.762Z,50.70
2022-07-29T14:37:40.595Z,49.40
2022-07-29T14:40:11.458Z,48.40
2022-07-29T14:42:40.286Z,49.30
2022-07-29T14:45:11.208Z,50.00
2022-07-29T14:47:40.250Z,50.60
2022-07-29T14:50:09.228Z,50.50
2022-07-29T14:52:37.301Z,50.80
2022-07-29T14:55:16.602Z,51.30
2022-07-29T14:57:48.612Z,52.10
2022-07-29T15:00:19.031Z,53.90
2022-07-29T15:03:01.360Z,54.70
2022-07-29T15:05:30.590Z,54.60
2022-07-29T15:07:59.702Z,54.60
2022-07-29T15:10:28.147Z,55.20
2022-07-29T15:12:56.361Z,56.50
2022-07-29T15:15:26.113Z,56.40
2022-07-29T15:17:54.259Z,55.90
2022-07-29T15:20:22.549Z,55.80
2022-07-29T15:22:50.600Z,55.00
2022-07-29T15:25:18.766Z,55.80
2022-07-29T15:27:49.698Z,57.00
2022-07-29T15:30:29.026Z,57.40
2022-07-29T15:33:04.778Z,57.90
2022-07-29T15:35:32.970Z,58.10
2022-07-29T15:38:01.855Z,58.60
2022-07-29T15:40:30.335Z,58.70
2022-07-29T15:43:01.585Z,58.40
2022-07-29T15:45:31.926Z,57.80
2022-07-29T15:48:01.251Z,58.00
2022-07-29T15:50:30.772Z,58.70
2022-07-29T15:52:58.790Z,58.40
2022-07-29T15:55:26.906Z,59.10
2022-07-29T15:58:00.001Z,60.50
2022-07-29T16:00:28.696Z,60.10
2022-07-29T16:02:57.269Z,61.50
2022-07-29T16:05:25.510Z,61.80
2022-07-29T16:07:54.879Z,60.10
2022-07-29T16:10:23.024Z,60.50
2022-07-29T16:12:51.030Z,61.30
2022-07-29T16:15:19.150Z,60.60
2022-07-29T16:17:47.213Z,60.50
2022-07-29T16:20:15.257Z,60.50
2022-07-29T16:22:43.523Z,60.30
2022-07-29T16:25:12.999Z,60.90
2022-07-29T16:27:41.189Z,60.60
2022-07-29T16:30:10.597Z,61.30
2022-07-29T16:32:39.742Z,61.60
2022-07-29T16:35:09.842Z,61.30
2022-07-29T16:37:38.277Z,61.20
2022-07-29T16:40:08.172Z,61.40
2022-07-29T16:42:46.894Z,62.10
2022-07-29T16:45:16.018Z,63.10
2022-07-29T16:47:44.141Z,63.40
2022-07-29T16:50:12.218Z,63.20
2022-07-29T16:52:40.322Z,63.70
2022-07-29T16:55:09.142Z,63.90
2022-07-29T16:57:37.202Z,63.20
2022-07-29T17:00:08.197Z,64.20
2022-07-29T17:02:37.361Z,63.50
2022-07-29T17:05:06.332Z,63.90
2022-07-29T17:07:34.500Z,64.20
2022-07-29T17:10:04.903Z,65.00
2022-07-29T17:12:33.153Z,64.60
2022-07-29T17:15:01.315Z,65.60
2022-07-29T17:17:38.645Z,65.20
2022-07-29T17:20:09.181Z,65.50
2022-07-29T17:22:37.592Z,64.80
2022-07-29T17:25:06.404Z,65.10
2022-07-29T17:27:34.646Z,65.10
2022-07-29T17:30:02.873Z,65.60
2022-07-29T17:32:36.352Z,65.60
2022-07-29T17:35:24.712Z,65.60
2022-07-29T17:37:53.293Z,65.70
2022-07-29T17:40:21.649Z,65.80
2022-07-29T17:42:49.770Z,65.60
2022-07-29T17:45:17.974Z,65.60
2022-07-29T17:47:47.379Z,66.10
2022-07-29T17:50:15.397Z,66.20
2022-07-29T17:52:43.429Z,66.70
2022-07-29T17:55:13.266Z,66.70
2022-07-29T17:57:41.371Z,67.80
2022-07-29T18:00:10.124Z,66.10
2022-07-29T18:02:38.280Z,66.90
2022-07-29T18:05:08.506Z,66.70
2022-07-29T18:07:36.548Z,67.00
2022-07-29T18:10:05.589Z,67.10
2022-07-29T18:12:33.668Z,67.20
2022-07-29T18:15:01.716Z,67.30
2022-07-29T18:17:45.985Z,67.80
2022-07-29T18:20:19.553Z,68.40
2022-07-29T18:22:47.653Z,67.90
2022-07-29T18:25:15.792Z,67.40
2022-07-29T18:27:43.899Z,67.40
2022-07-29T18:30:12.161Z,68.50
2022-07-29T18:32:40.305Z,67.70
2022-07-29T18:35:09.910Z,68.50
2022-07-29T18:38:01.669Z,69.50
2022-07-29T18:40:27.543Z,70.70
2022-07-29T18:42:57.795Z,69.80
2022-07-29T18:45:28.242Z,69.60
2022-07-29T18:47:57.126Z,69.60
2022-07-29T18:50:29.264Z,69.60
2022-07-29T18:53:01.112Z,70.50
2022-07-29T18:55:29.199Z,69.70
2022-07-29T18:57:57.623Z,70.30
2022-07-29T19:00:27.117Z,70.70
2022-07-29T19:02:55.583Z,70.80
2022-07-29T19:05:24.048Z,71.40
2022-07-29T19:07:52.157Z,71.70
2022-07-29T19:10:21.674Z,72.70
2022-07-29T19:12:49.758Z,73.40
2022-07-29T19:15:20.367Z,74.60
2022-07-29T19:17:49.285Z,74.20
2022-07-29T19:20:17.317Z,76.10
2022-07-29T19:22:45.475Z,76.10
2022-07-29T19:25:13.517Z,76.10
2022-07-29T19:27:44.595Z,76.90
2022-07-29T19:30:13.172Z,78.00
2022-07-29T19:32:41.257Z,79.20
2022-07-29T19:35:27.132Z,79.90
2022-07-29T19:37:56.910Z,80.80
2022-07-29T19:40:25.915Z,81.20
2022-07-29T19:42:55.812Z,81.60
2022-07-29T19:45:25.633Z,82.30
2022-07-29T19:47:59.095Z,83.30
2022-07-29T19:50:29.410Z,84.00
2022-07-29T19:52:57.467Z,85.10
2022-07-29T19:55:25.500Z,85.70
2022-07-29T19:57:55.325Z,86.70
2022-07-29T20:00:25.076Z,87.70
2022-07-29T20:02:53.382Z,88.50
2022-07-29T20:05:21.491Z,89.60
2022-07-29T20:07:56.163Z,90.10
2022-07-29T20:10:24.379Z,90.60
2022-07-29T20:12:55.057Z,91.10
2022-07-29T20:15:25.228Z,91.50
2022-07-29T20:17:57.210Z,92.10
2022-07-29T20:20:26.109Z,92.80
2022-07-29T20:22:54.371Z,93.70
2022-07-29T20:25:22.503Z,94.50
2022-07-29T20:27:52.284Z,95.20
2022-07-29T20:30:20.865Z,95.60
2022-07-29T20:32:50.800Z,96.40
2022-07-29T20:35:20.266Z,97.30
2022-07-29T20:37:52.246Z,98.10
2022-07-29T20:40:25.384Z,99.00
2022-07-29T20:42:53.651Z,99.70
2022-07-29T20:45:22.447Z,99.90
2022-07-29T20:47:52.040Z,99.90
2022-07-29T20:50:24.074Z,99.90
2022-07-29T20:52:53.148Z,99.90
2022-07-29T20:55:21.989Z,99.90
2022-07-29T20:57:50.069Z,99.90
2022-07-29T21:00:18.421Z,99.90
2022-07-29T21:02:47.191Z,99.90
2022-07-29T21:05:16.819Z,99.90
2022-07-29T21:07:44.864Z,99.90
2022-07-29T21:10:14.140Z,99.90
2022-07-29T21:12:42.901Z,99.90
2022-07-29T21:15:13.395Z,99.90
2022-07-29T21:17:46.655Z,99.90
2022-07-29T21:20:17.751Z,99.90
2022-07-29T21:22:46.492Z,99.90
2022-07-29T21:25:14.565Z,99.90
2022-07-29T21:28:00.157Z,99.90
2022-07-29T21:30:28.720Z,99.90
2022-07-29T21:32:56.937Z,99.90
2022-07-29T21:35:35.681Z,99.90
2022-07-29T21:38:18.268Z,99.90
2022-07-29T21:40:47.851Z,99.90
2022-07-29T21:43:16.850Z,99.90
2022-07-29T21:45:47.542Z,99.90
2022-07-29T21:48:15.878Z,99.90
2022-07-29T21:50:45.680Z,99.90
2022-07-29T21:53:15.964Z,99.90
2022-07-29T21:55:44.459Z,99.90
2022-07-29T21:58:15.242Z,99.90
2022-07-29T22:00:44.031Z,99.90
2022-07-29T22:03:12.361Z,99.90
2022-07-29T22:05:40.433Z,99.90
2022-07-29T22:08:09.891Z,99.90
2022-07-29T22:10:38.241Z,99.90
2022-07-29T22:13:06.304Z,99.90
2022-07-29T22:15:34.519Z,99.90
2022-07-29T22:18:02.664Z,99.90
2022-07-29T22:20:30.729Z,99.90
2022-07-29T22:22:59.061Z,99.90
2022-07-29T22:25:29.803Z,99.90
2022-07-29T22:27:57.919Z,99.90
2022-07-29T22:30:26.245Z,99.90
2022-07-29T22:32:54.441Z,99.90
2022-07-29T22:35:22.476Z,99.90
2022-07-29T22:37:51.059Z,99.90
2022-07-29T22:40:19.179Z,99.90
2022-07-29T22:42:48.548Z,99.90
2022-07-29T22:45:16.653Z,99.90
2022-07-29T22:47:48.484Z,99.90
2022-07-29T22:50:17.849Z,99.90
2022-07-29T22:52:46.234Z,99.90
2022-07-29T22:55:14.387Z,99.90
2022-07-29T22:57:42.811Z,99.90
2022-07-29T23:00:14.344Z,99.90
2022-07-29T23:02:42.413Z,99.90
2022-07-29T23:05:11.280Z,99.90
2022-07-29T23:07:39.473Z,99.90
2022-07-29T23:10:08.818Z,99.90
2022-07-29T23:12:37.063Z,99.90
2022-07-29T23:15:05.611Z,99.90
2022-07-29T23:17:36.192Z,99.90
2022-07-29T23:20:07.646Z,99.90
2022-07-29T23:22:35.887Z,99.90
2022-07-29T23:25:04.851Z,99.90
2022-07-29T23:27:33.076Z,99.90
2022-07-29T23:30:01.673Z,99.90
2022-07-29T23:32:29.700Z,99.90
2022-07-29T23:34:59.100Z,99.90
2022-07-29T23:37:27.178Z,99.90
2022-07-29T23:39:55.511Z,99.90
2022-07-29T23:42:23.791Z,99.90
2022-07-29T23:44:52.248Z,99.90
2022-07-29T23:47:20.291Z,99.90
2022-07-29T23:49:49.892Z,99.90
2022-07-29T23:52:19.451Z,99.90
2022-07-29T23:54:47.761Z,99.90
2022-07-29T23:57:15.920Z,99.90
2022-07-29T23:59:44.200Z,99.90
